sensor_id;sensor_type;location;lat;lon;timestamp;P1;durP1;ratioP1;P2;durP2;ratioP2
84614;SDS011;74845;51.204;22.580;2024-03-17T00:01:37;15.38;;;13.82;;
84614;SDS011;74845;51.204;22.580;2024-03-17T00:04:03;14.15;;;12.52;;
84614;SDS011;74845;51.204;22.580;2024-03-17T00:06:30;16.67;;;14.98;;
84614;SDS011;74845;51.204;22.580;2024-03-17T00:08:56;16.20;;;14.55;;
84614;SDS011;74845;51.204;22.580;2024-03-17T00:11:21;17.45;;;15.75;;
84614;SDS011;74845;51.204;22.580;2024-03-17T00:13:48;15.30;;;13.93;;
84614;SDS011;74845;51.204;22.580;2024-03-17T00:16:14;17.25;;;15.02;;
84614;SDS011;74845;51.204;22.580;2024-03-17T00:18:44;16.55;;;14.85;;
84614;SDS011;74845;51.204;22.580;2024-03-17T00:21:11;15.52;;;13.90;;
84614;SDS011;74845;51.204;22.580;2024-03-17T00:23:38;16.42;;;14.75;;
84614;SDS011;74845;51.204;22.580;2024-03-17T00:26:04;16.23;;;14.63;;
84614;SDS011;74845;51.204;22.580;2024-03-17T00:28:30;14.65;;;12.90;;
84614;SDS011;74845;51.204;22.580;2024-03-17T00:30:56;15.70;;;14.15;;
84614;SDS011;74845;51.204;22.580;2024-03-17T00:33:21;14.57;;;13.15;;
84614;SDS011;74845;51.204;22.580;2024-03-17T00:35:48;13.88;;;12.48;;
84614;SDS011;74845;51.204;22.580;2024-03-17T00:38:13;14.75;;;12.32;;
84614;SDS011;74845;51.204;22.580;2024-03-17T00:40:39;13.32;;;12.02;;
84614;SDS011;74845;51.204;22.580;2024-03-17T00:43:10;13.73;;;12.27;;
84614;SDS011;74845;51.204;22.580;2024-03-17T00:45:37;13.68;;;12.38;;
84614;SDS011;74845;51.204;22.580;2024-03-17T00:48:03;12.43;;;11.07;;
84614;SDS011;74845;51.204;22.580;2024-03-17T00:50:30;12.20;;;11.05;;
84614;SDS011;74845;51.204;22.580;2024-03-17T00:52:56;11.93;;;10.70;;
84614;SDS011;74845;51.204;22.580;2024-03-17T00:55:22;10.93;;;9.75;;
84614;SDS011;74845;51.204;22.580;2024-03-17T00:57:48;10.32;;;9.43;;
84614;SDS011;74845;51.204;22.580;2024-03-17T01:00:14;10.50;;;9.40;;
84614;SDS011;74845;51.204;22.580;2024-03-17T01:02:40;10.65;;;9.73;;
84614;SDS011;74845;51.204;22.580;2024-03-17T01:05:06;10.60;;;9.52;;
84614;SDS011;74845;51.204;22.580;2024-03-17T01:07:33;11.10;;;9.57;;
84614;SDS011;74845;51.204;22.580;2024-03-17T01:09:59;9.93;;;8.88;;
84614;SDS011;74845;51.204;22.580;2024-03-17T01:12:25;10.18;;;9.18;;
84614;SDS011;74845;51.204;22.580;2024-03-17T01:14:51;10.68;;;9.65;;
84614;SDS011;74845;51.204;22.580;2024-03-17T01:17:17;10.55;;;9.55;;
84614;SDS011;74845;51.204;22.580;2024-03-17T01:19:44;10.43;;;9.32;;
84614;SDS011;74845;51.204;22.580;2024-03-17T01:22:10;10.18;;;9.15;;
84614;SDS011;74845;51.204;22.580;2024-03-17T01:24:36;10.93;;;9.88;;
84614;SDS011;74845;51.204;22.580;2024-03-17T01:27:05;9.48;;;8.05;;
84614;SDS011;74845;51.204;22.580;2024-03-17T01:29:31;9.63;;;8.65;;
84614;SDS011;74845;51.204;22.580;2024-03-17T01:31:57;11.05;;;9.95;;
84614;SDS011;74845;51.204;22.580;2024-03-17T01:34:23;10.40;;;9.25;;
84614;SDS011;74845;51.204;22.580;2024-03-17T01:36:48;10.45;;;9.27;;
84614;SDS011;74845;51.204;22.580;2024-03-17T01:39:14;9.25;;;8.35;;
84614;SDS011;74845;51.204;22.580;2024-03-17T01:41:41;9.68;;;8.77;;
84614;SDS011;74845;51.204;22.580;2024-03-17T01:44:07;10.75;;;9.65;;
84614;SDS011;74845;51.204;22.580;2024-03-17T01:46:33;10.88;;;9.77;;
84614;SDS011;74845;51.204;22.580;2024-03-17T01:48:59;10.77;;;9.50;;
84614;SDS011;74845;51.204;22.580;2024-03-17T01:51:26;10.32;;;9.35;;
84614;SDS011;74845;51.204;22.580;2024-03-17T01:53:52;12.32;;;9.48;;
84614;SDS011;74845;51.204;22.580;2024-03-17T01:56:19;10.27;;;9.50;;
84614;SDS011;74845;51.204;22.580;2024-03-17T01:58:45;9.82;;;9.05;;
84614;SDS011;74845;51.204;22.580;2024-03-17T02:01:11;9.85;;;8.95;;
84614;SDS011;74845;51.204;22.580;2024-03-17T02:03:40;9.45;;;8.55;;
84614;SDS011;74845;51.204;22.580;2024-03-17T02:06:10;8.60;;;7.90;;
84614;SDS011;74845;51.204;22.580;2024-03-17T02:08:52;6.80;;;6.07;;
84614;SDS011;74845;51.204;22.580;2024-03-17T02:14:01;4.13;;;3.90;;
84614;SDS011;74845;51.204;22.580;2024-03-17T02:16:27;4.93;;;4.43;;
84614;SDS011;74845;51.204;22.580;2024-03-17T02:18:54;4.40;;;4.10;;
84614;SDS011;74845;51.204;22.580;2024-03-17T02:21:21;5.03;;;4.40;;
84614;SDS011;74845;51.204;22.580;2024-03-17T02:23:48;6.53;;;3.95;;
84614;SDS011;74845;51.204;22.580;2024-03-17T02:26:14;5.03;;;4.63;;
84614;SDS011;74845;51.204;22.580;2024-03-17T02:28:43;5.35;;;4.75;;
84614;SDS011;74845;51.204;22.580;2024-03-17T02:31:11;4.80;;;3.95;;
84614;SDS011;74845;51.204;22.580;2024-03-17T02:33:37;6.03;;;4.32;;
84614;SDS011;74845;51.204;22.580;2024-03-17T02:36:06;3.70;;;2.65;;
84614;SDS011;74845;51.204;22.580;2024-03-17T02:38:38;4.20;;;2.28;;
84614;SDS011;74845;51.204;22.580;2024-03-17T02:41:23;6.15;;;3.35;;
84614;SDS011;74845;51.204;22.580;2024-03-17T02:43:49;3.13;;;1.60;;
84614;SDS011;74845;51.204;22.580;2024-03-17T02:46:16;4.85;;;2.15;;
84614;SDS011;74845;51.204;22.580;2024-03-17T02:48:44;6.10;;;2.10;;
84614;SDS011;74845;51.204;22.580;2024-03-17T02:51:15;2.30;;;1.83;;
84614;SDS011;74845;51.204;22.580;2024-03-17T02:53:45;5.43;;;2.30;;
84614;SDS011;74845;51.204;22.580;2024-03-17T02:56:14;5.18;;;3.28;;
84614;SDS011;74845;51.204;22.580;2024-03-17T02:58:47;6.53;;;2.55;;
84614;SDS011;74845;51.204;22.580;2024-03-17T03:01:13;3.35;;;2.70;;
84614;SDS011;74845;51.204;22.580;2024-03-17T03:03:40;2.80;;;2.58;;
84614;SDS011;74845;51.204;22.580;2024-03-17T03:06:06;6.20;;;3.45;;
84614;SDS011;74845;51.204;22.580;2024-03-17T03:08:37;7.38;;;3.75;;
84614;SDS011;74845;51.204;22.580;2024-03-17T03:11:07;8.52;;;4.15;;
84614;SDS011;74845;51.204;22.580;2024-03-17T03:16:03;4.32;;;2.33;;
84614;SDS011;74845;51.204;22.580;2024-03-17T03:18:30;5.00;;;3.95;;
84614;SDS011;74845;51.204;22.580;2024-03-17T03:20:56;5.68;;;3.15;;
84614;SDS011;74845;51.204;22.580;2024-03-17T03:23:22;7.38;;;4.38;;
84614;SDS011;74845;51.204;22.580;2024-03-17T03:25:48;10.68;;;6.57;;
84614;SDS011;74845;51.204;22.580;2024-03-17T03:28:20;9.07;;;5.30;;
84614;SDS011;74845;51.204;22.580;2024-03-17T03:30:46;6.75;;;3.55;;
84614;SDS011;74845;51.204;22.580;2024-03-17T03:33:11;5.15;;;3.90;;
84614;SDS011;74845;51.204;22.580;2024-03-17T03:35:37;4.22;;;3.00;;
84614;SDS011;74845;51.204;22.580;2024-03-17T03:38:03;5.72;;;3.60;;
84614;SDS011;74845;51.204;22.580;2024-03-17T03:40:28;8.00;;;3.67;;
84614;SDS011;74845;51.204;22.580;2024-03-17T03:42:55;7.40;;;3.17;;
84614;SDS011;74845;51.204;22.580;2024-03-17T03:45:21;5.50;;;3.15;;
84614;SDS011;74845;51.204;22.580;2024-03-17T03:47:47;5.93;;;3.28;;
84614;SDS011;74845;51.204;22.580;2024-03-17T03:50:14;6.90;;;2.08;;
84614;SDS011;74845;51.204;22.580;2024-03-17T03:52:41;5.57;;;2.65;;
84614;SDS011;74845;51.204;22.580;2024-03-17T03:55:08;6.75;;;3.10;;
84614;SDS011;74845;51.204;22.580;2024-03-17T03:57:40;5.18;;;2.83;;
84614;SDS011;74845;51.204;22.580;2024-03-17T04:00:13;6.35;;;2.50;;
84614;SDS011;74845;51.204;22.580;2024-03-17T04:02:40;3.00;;;2.72;;
84614;SDS011;74845;51.204;22.580;2024-03-17T04:05:08;2.97;;;2.17;;
84614;SDS011;74845;51.204;22.580;2024-03-17T04:07:34;7.95;;;2.92;;
84614;SDS011;74845;51.204;22.580;2024-03-17T04:10:01;5.38;;;2.25;;
84614;SDS011;74845;51.204;22.580;2024-03-17T04:12:28;4.57;;;1.92;;
84614;SDS011;74845;51.204;22.580;2024-03-17T04:14:59;4.00;;;2.30;;
84614;SDS011;74845;51.204;22.580;2024-03-17T04:17:26;5.15;;;3.13;;
84614;SDS011;74845;51.204;22.580;2024-03-17T04:19:53;6.85;;;3.42;;
84614;SDS011;74845;51.204;22.580;2024-03-17T04:22:20;3.08;;;2.40;;
84614;SDS011;74845;51.204;22.580;2024-03-17T04:24:47;3.13;;;2.65;;
84614;SDS011;74845;51.204;22.580;2024-03-17T04:27:24;3.67;;;2.55;;
84614;SDS011;74845;51.204;22.580;2024-03-17T04:29:54;3.83;;;2.42;;
84614;SDS011;74845;51.204;22.580;2024-03-17T04:32:22;5.05;;;2.13;;
84614;SDS011;74845;51.204;22.580;2024-03-17T04:34:48;6.43;;;2.65;;
84614;SDS011;74845;51.204;22.580;2024-03-17T04:37:14;5.80;;;2.90;;
84614;SDS011;74845;51.204;22.580;2024-03-17T04:39:40;6.13;;;2.67;;
84614;SDS011;74845;51.204;22.580;2024-03-17T04:42:10;5.63;;;1.83;;
84614;SDS011;74845;51.204;22.580;2024-03-17T04:44:37;6.10;;;2.55;;
84614;SDS011;74845;51.204;22.580;2024-03-17T04:47:04;8.15;;;2.78;;
84614;SDS011;74845;51.204;22.580;2024-03-17T04:49:42;4.07;;;2.45;;
84614;SDS011;74845;51.204;22.580;2024-03-17T04:52:10;3.20;;;2.22;;
84614;SDS011;74845;51.204;22.580;2024-03-17T04:54:38;6.13;;;2.53;;
84614;SDS011;74845;51.204;22.580;2024-03-17T04:57:06;6.82;;;3.38;;
84614;SDS011;74845;51.204;22.580;2024-03-17T04:59:33;5.90;;;2.95;;
84614;SDS011;74845;51.204;22.580;2024-03-17T05:02:00;7.15;;;2.97;;
84614;SDS011;74845;51.204;22.580;2024-03-17T05:04:26;8.40;;;2.72;;
84614;SDS011;74845;51.204;22.580;2024-03-17T05:06:52;6.03;;;3.10;;
84614;SDS011;74845;51.204;22.580;2024-03-17T05:09:18;5.22;;;2.88;;
84614;SDS011;74845;51.204;22.580;2024-03-17T05:11:44;4.45;;;3.17;;
84614;SDS011;74845;51.204;22.580;2024-03-17T05:14:10;6.13;;;3.65;;
84614;SDS011;74845;51.204;22.580;2024-03-17T05:16:36;5.60;;;3.65;;
84614;SDS011;74845;51.204;22.580;2024-03-17T05:19:02;7.85;;;4.35;;
84614;SDS011;74845;51.204;22.580;2024-03-17T05:21:29;4.28;;;3.78;;
84614;SDS011;74845;51.204;22.580;2024-03-17T05:23:56;8.88;;;7.07;;
84614;SDS011;74845;51.204;22.580;2024-03-17T05:26:23;9.27;;;4.90;;
84614;SDS011;74845;51.204;22.580;2024-03-17T05:28:50;11.70;;;10.60;;
84614;SDS011;74845;51.204;22.580;2024-03-17T05:31:16;6.95;;;5.68;;
84614;SDS011;74845;51.204;22.580;2024-03-17T05:33:43;5.03;;;4.38;;
84614;SDS011;74845;51.204;22.580;2024-03-17T05:36:09;9.70;;;3.75;;
84614;SDS011;74845;51.204;22.580;2024-03-17T05:38:35;6.68;;;2.40;;
84614;SDS011;74845;51.204;22.580;2024-03-17T05:41:04;6.85;;;3.03;;
84614;SDS011;74845;51.204;22.580;2024-03-17T05:43:32;6.90;;;3.22;;
84614;SDS011;74845;51.204;22.580;2024-03-17T05:45:59;6.32;;;3.47;;
84614;SDS011;74845;51.204;22.580;2024-03-17T05:48:29;4.63;;;2.47;;
84614;SDS011;74845;51.204;22.580;2024-03-17T05:50:55;5.85;;;2.88;;
84614;SDS011;74845;51.204;22.580;2024-03-17T05:53:21;4.40;;;3.25;;
84614;SDS011;74845;51.204;22.580;2024-03-17T05:55:49;7.40;;;3.03;;
84614;SDS011;74845;51.204;22.580;2024-03-17T05:58:16;3.75;;;2.67;;
84614;SDS011;74845;51.204;22.580;2024-03-17T06:00:42;6.07;;;2.50;;
84614;SDS011;74845;51.204;22.580;2024-03-17T06:03:09;7.28;;;3.67;;
84614;SDS011;74845;51.204;22.580;2024-03-17T06:05:36;2.95;;;2.22;;
84614;SDS011;74845;51.204;22.580;2024-03-17T06:08:03;5.15;;;2.88;;
84614;SDS011;74845;51.204;22.580;2024-03-17T06:10:31;5.05;;;2.47;;
84614;SDS011;74845;51.204;22.580;2024-03-17T06:12:57;3.70;;;2.63;;
84614;SDS011;74845;51.204;22.580;2024-03-17T06:15:24;3.25;;;2.25;;
84614;SDS011;74845;51.204;22.580;2024-03-17T06:17:50;7.22;;;3.42;;
84614;SDS011;74845;51.204;22.580;2024-03-17T06:20:19;3.60;;;2.55;;
84614;SDS011;74845;51.204;22.580;2024-03-17T06:22:54;5.78;;;2.92;;
84614;SDS011;74845;51.204;22.580;2024-03-17T06:25:20;4.13;;;3.17;;
84614;SDS011;74845;51.204;22.580;2024-03-17T06:27:52;5.88;;;2.42;;
84614;SDS011;74845;51.204;22.580;2024-03-17T06:30:18;3.95;;;2.63;;
84614;SDS011;74845;51.204;22.580;2024-03-17T06:32:44;4.22;;;2.45;;
84614;SDS011;74845;51.204;22.580;2024-03-17T06:35:11;6.32;;;4.28;;
84614;SDS011;74845;51.204;22.580;2024-03-17T06:37:44;6.90;;;4.05;;
84614;SDS011;74845;51.204;22.580;2024-03-17T06:40:12;6.38;;;4.10;;
84614;SDS011;74845;51.204;22.580;2024-03-17T06:42:39;5.97;;;3.80;;
84614;SDS011;74845;51.204;22.580;2024-03-17T06:45:05;5.45;;;3.92;;
84614;SDS011;74845;51.204;22.580;2024-03-17T06:47:37;7.87;;;3.97;;
84614;SDS011;74845;51.204;22.580;2024-03-17T06:50:04;5.78;;;2.22;;
84614;SDS011;74845;51.204;22.580;2024-03-17T06:52:30;6.93;;;3.78;;
84614;SDS011;74845;51.204;22.580;2024-03-17T06:54:58;7.33;;;3.03;;
84614;SDS011;74845;51.204;22.580;2024-03-17T06:57:24;4.93;;;2.55;;
84614;SDS011;74845;51.204;22.580;2024-03-17T06:59:51;4.15;;;2.45;;
84614;SDS011;74845;51.204;22.580;2024-03-17T07:02:16;6.13;;;2.60;;
84614;SDS011;74845;51.204;22.580;2024-03-17T07:04:44;4.53;;;2.70;;
84614;SDS011;74845;51.204;22.580;2024-03-17T07:07:10;7.97;;;3.45;;
84614;SDS011;74845;51.204;22.580;2024-03-17T07:09:37;7.57;;;3.00;;
84614;SDS011;74845;51.204;22.580;2024-03-17T07:12:06;5.57;;;2.72;;
84614;SDS011;74845;51.204;22.580;2024-03-17T07:14:32;5.50;;;2.78;;
84614;SDS011;74845;51.204;22.580;2024-03-17T07:16:58;5.22;;;4.05;;
84614;SDS011;74845;51.204;22.580;2024-03-17T07:19:23;5.78;;;3.88;;
84614;SDS011;74845;51.204;22.580;2024-03-17T07:21:49;6.32;;;3.47;;
84614;SDS011;74845;51.204;22.580;2024-03-17T07:24:15;7.53;;;3.25;;
84614;SDS011;74845;51.204;22.580;2024-03-17T07:26:40;4.30;;;3.42;;
84614;SDS011;74845;51.204;22.580;2024-03-17T07:29:06;6.88;;;3.50;;
84614;SDS011;74845;51.204;22.580;2024-03-17T07:31:34;5.40;;;3.10;;
84614;SDS011;74845;51.204;22.580;2024-03-17T07:34:00;5.35;;;3.80;;
84614;SDS011;74845;51.204;22.580;2024-03-17T07:36:25;7.28;;;4.15;;
84614;SDS011;74845;51.204;22.580;2024-03-17T07:38:51;8.25;;;3.55;;
84614;SDS011;74845;51.204;22.580;2024-03-17T07:41:18;5.57;;;3.53;;
84614;SDS011;74845;51.204;22.580;2024-03-17T07:43:45;5.13;;;2.85;;
84614;SDS011;74845;51.204;22.580;2024-03-17T07:46:12;6.97;;;3.75;;
84614;SDS011;74845;51.204;22.580;2024-03-17T07:48:39;5.82;;;3.63;;
84614;SDS011;74845;51.204;22.580;2024-03-17T07:51:07;5.47;;;2.75;;
84614;SDS011;74845;51.204;22.580;2024-03-17T07:53:37;5.38;;;2.72;;
84614;SDS011;74845;51.204;22.580;2024-03-17T07:58:31;4.05;;;2.83;;
84614;SDS011;74845;51.204;22.580;2024-03-17T08:01:02;4.28;;;3.13;;
84614;SDS011;74845;51.204;22.580;2024-03-17T08:03:29;9.15;;;3.83;;
84614;SDS011;74845;51.204;22.580;2024-03-17T08:05:57;4.60;;;3.10;;
84614;SDS011;74845;51.204;22.580;2024-03-17T08:08:24;11.02;;;4.55;;
84614;SDS011;74845;51.204;22.580;2024-03-17T08:10:49;6.20;;;3.60;;
84614;SDS011;74845;51.204;22.580;2024-03-17T08:13:16;5.75;;;3.80;;
84614;SDS011;74845;51.204;22.580;2024-03-17T08:15:43;6.50;;;3.40;;
84614;SDS011;74845;51.204;22.580;2024-03-17T08:18:11;7.38;;;4.70;;
84614;SDS011;74845;51.204;22.580;2024-03-17T08:20:40;7.68;;;4.93;;
84614;SDS011;74845;51.204;22.580;2024-03-17T08:23:07;5.00;;;4.35;;
84614;SDS011;74845;51.204;22.580;2024-03-17T08:25:34;6.20;;;3.95;;
84614;SDS011;74845;51.204;22.580;2024-03-17T08:28:00;3.85;;;3.47;;
84614;SDS011;74845;51.204;22.580;2024-03-17T08:30:27;6.65;;;3.85;;
84614;SDS011;74845;51.204;22.580;2024-03-17T08:32:53;6.80;;;3.53;;
84614;SDS011;74845;51.204;22.580;2024-03-17T08:35:18;5.93;;;3.80;;
84614;SDS011;74845;51.204;22.580;2024-03-17T08:37:44;5.30;;;4.22;;
84614;SDS011;74845;51.204;22.580;2024-03-17T08:40:10;6.45;;;3.90;;
84614;SDS011;74845;51.204;22.580;2024-03-17T08:42:37;6.22;;;4.22;;
84614;SDS011;74845;51.204;22.580;2024-03-17T08:45:03;3.65;;;3.33;;
84614;SDS011;74845;51.204;22.580;2024-03-17T08:47:30;5.82;;;3.80;;
84614;SDS011;74845;51.204;22.580;2024-03-17T08:49:56;4.72;;;3.85;;
84614;SDS011;74845;51.204;22.580;2024-03-17T08:52:23;6.53;;;3.50;;
84614;SDS011;74845;51.204;22.580;2024-03-17T08:54:49;6.22;;;4.20;;
84614;SDS011;74845;51.204;22.580;2024-03-17T08:57:17;3.83;;;3.58;;
84614;SDS011;74845;51.204;22.580;2024-03-17T08:59:45;10.07;;;4.78;;
84614;SDS011;74845;51.204;22.580;2024-03-17T09:02:12;5.35;;;3.55;;
84614;SDS011;74845;51.204;22.580;2024-03-17T09:04:40;5.50;;;4.78;;
84614;SDS011;74845;51.204;22.580;2024-03-17T09:07:06;5.95;;;5.15;;
84614;SDS011;74845;51.204;22.580;2024-03-17T09:09:32;5.90;;;4.97;;
84614;SDS011;74845;51.204;22.580;2024-03-17T09:11:58;4.53;;;4.13;;
84614;SDS011;74845;51.204;22.580;2024-03-17T09:14:24;7.72;;;4.97;;
84614;SDS011;74845;51.204;22.580;2024-03-17T09:16:50;8.23;;;5.07;;
84614;SDS011;74845;51.204;22.580;2024-03-17T09:19:16;7.65;;;6.63;;
84614;SDS011;74845;51.204;22.580;2024-03-17T09:21:41;4.68;;;4.28;;
84614;SDS011;74845;51.204;22.580;2024-03-17T09:24:08;5.45;;;4.60;;
84614;SDS011;74845;51.204;22.580;2024-03-17T09:26:34;8.35;;;4.90;;
84614;SDS011;74845;51.204;22.580;2024-03-17T09:29:00;10.02;;;5.22;;
84614;SDS011;74845;51.204;22.580;2024-03-17T09:31:27;6.85;;;4.55;;
84614;SDS011;74845;51.204;22.580;2024-03-17T09:33:52;9.35;;;5.47;;
84614;SDS011;74845;51.204;22.580;2024-03-17T09:36:18;6.72;;;4.05;;
84614;SDS011;74845;51.204;22.580;2024-03-17T09:38:44;6.47;;;4.85;;
84614;SDS011;74845;51.204;22.580;2024-03-17T09:41:17;8.63;;;4.60;;
84614;SDS011;74845;51.204;22.580;2024-03-17T09:43:47;9.13;;;5.35;;
84614;SDS011;74845;51.204;22.580;2024-03-17T09:46:14;6.22;;;4.88;;
84614;SDS011;74845;51.204;22.580;2024-03-17T09:48:41;4.47;;;4.05;;
84614;SDS011;74845;51.204;22.580;2024-03-17T09:51:08;9.55;;;4.25;;
84614;SDS011;74845;51.204;22.580;2024-03-17T09:53:46;6.57;;;3.90;;
84614;SDS011;74845;51.204;22.580;2024-03-17T09:56:13;4.55;;;4.07;;
84614;SDS011;74845;51.204;22.580;2024-03-17T09:58:44;10.15;;;4.20;;
84614;SDS011;74845;51.204;22.580;2024-03-17T10:01:11;5.80;;;4.15;;
84614;SDS011;74845;51.204;22.580;2024-03-17T10:03:47;7.20;;;4.25;;
84614;SDS011;74845;51.204;22.580;2024-03-17T10:06:17;5.57;;;3.47;;
84614;SDS011;74845;51.204;22.580;2024-03-17T10:08:46;8.20;;;3.92;;
84614;SDS011;74845;51.204;22.580;2024-03-17T10:11:17;7.80;;;3.92;;
84614;SDS011;74845;51.204;22.580;2024-03-17T10:13:45;4.03;;;3.67;;
84614;SDS011;74845;51.204;22.580;2024-03-17T10:16:24;5.00;;;3.78;;
84614;SDS011;74845;51.204;22.580;2024-03-17T10:19:06;3.95;;;3.55;;
84614;SDS011;74845;51.204;22.580;2024-03-17T10:21:47;4.20;;;3.50;;
84614;SDS011;74845;51.204;22.580;2024-03-17T10:24:23;4.18;;;3.88;;
84614;SDS011;74845;51.204;22.580;2024-03-17T10:26:51;8.20;;;3.92;;
84614;SDS011;74845;51.204;22.580;2024-03-17T10:31:58;3.33;;;2.85;;
84614;SDS011;74845;51.204;22.580;2024-03-17T10:34:27;7.82;;;3.92;;
84614;SDS011;74845;51.204;22.580;2024-03-17T10:37:10;5.85;;;3.38;;
84614;SDS011;74845;51.204;22.580;2024-03-17T10:39:40;3.65;;;2.90;;
84614;SDS011;74845;51.204;22.580;2024-03-17T10:42:10;4.07;;;3.67;;
84614;SDS011;74845;51.204;22.580;2024-03-17T10:44:38;3.70;;;3.40;;
84614;SDS011;74845;51.204;22.580;2024-03-17T10:47:05;9.02;;;6.53;;
84614;SDS011;74845;51.204;22.580;2024-03-17T10:49:38;10.77;;;8.70;;
84614;SDS011;74845;51.204;22.580;2024-03-17T10:52:05;6.22;;;4.95;;
84614;SDS011;74845;51.204;22.580;2024-03-17T10:54:48;7.90;;;4.95;;
84614;SDS011;74845;51.204;22.580;2024-03-17T10:59:53;5.22;;;3.50;;
84614;SDS011;74845;51.204;22.580;2024-03-17T11:02:22;5.63;;;4.10;;
84614;SDS011;74845;51.204;22.580;2024-03-17T11:04:50;9.57;;;5.90;;
84614;SDS011;74845;51.204;22.580;2024-03-17T11:07:17;6.97;;;5.10;;
84614;SDS011;74845;51.204;22.580;2024-03-17T11:09:44;10.30;;;6.72;;
84614;SDS011;74845;51.204;22.580;2024-03-17T11:17:44;4.97;;;4.18;;
84614;SDS011;74845;51.204;22.580;2024-03-17T11:20:33;4.22;;;3.90;;
84614;SDS011;74845;51.204;22.580;2024-03-17T11:23:01;5.63;;;4.38;;
84614;SDS011;74845;51.204;22.580;2024-03-17T11:27:58;5.95;;;4.07;;
84614;SDS011;74845;51.204;22.580;2024-03-17T11:49:42;9.95;;;7.55;;
84614;SDS011;74845;51.204;22.580;2024-03-17T11:52:10;9.88;;;5.50;;
84614;SDS011;74845;51.204;22.580;2024-03-17T11:54:39;8.60;;;4.65;;
84614;SDS011;74845;51.204;22.580;2024-03-17T11:57:09;20.77;;;10.90;;
84614;SDS011;74845;51.204;22.580;2024-03-17T11:59:48;6.03;;;4.90;;
84614;SDS011;74845;51.204;22.580;2024-03-17T12:02:24;13.45;;;7.30;;
84614;SDS011;74845;51.204;22.580;2024-03-17T12:04:53;16.63;;;8.20;;
84614;SDS011;74845;51.204;22.580;2024-03-17T12:07:22;18.52;;;9.18;;
84614;SDS011;74845;51.204;22.580;2024-03-17T12:09:53;10.45;;;5.57;;
84614;SDS011;74845;51.204;22.580;2024-03-17T12:12:21;5.47;;;4.30;;
84614;SDS011;74845;51.204;22.580;2024-03-17T12:14:50;11.80;;;6.13;;
84614;SDS011;74845;51.204;22.580;2024-03-17T12:17:23;7.75;;;5.68;;
84614;SDS011;74845;51.204;22.580;2024-03-17T12:19:50;9.70;;;6.03;;
84614;SDS011;74845;51.204;22.580;2024-03-17T12:22:17;9.50;;;6.03;;
84614;SDS011;74845;51.204;22.580;2024-03-17T12:24:48;8.25;;;4.82;;
84614;SDS011;74845;51.204;22.580;2024-03-17T12:27:18;7.68;;;4.60;;
84614;SDS011;74845;51.204;22.580;2024-03-17T12:29:46;5.38;;;4.05;;
84614;SDS011;74845;51.204;22.580;2024-03-17T12:32:14;4.57;;;3.60;;
84614;SDS011;74845;51.204;22.580;2024-03-17T12:34:54;4.28;;;3.70;;
84614;SDS011;74845;51.204;22.580;2024-03-17T12:37:23;8.25;;;4.38;;
84614;SDS011;74845;51.204;22.580;2024-03-17T12:39:56;5.05;;;4.18;;
84614;SDS011;74845;51.204;22.580;2024-03-17T12:42:24;5.55;;;5.00;;
84614;SDS011;74845;51.204;22.580;2024-03-17T12:44:52;9.27;;;7.15;;
84614;SDS011;74845;51.204;22.580;2024-03-17T12:52:22;4.13;;;3.75;;
84614;SDS011;74845;51.204;22.580;2024-03-17T12:57:52;7.50;;;5.05;;
84614;SDS011;74845;51.204;22.580;2024-03-17T13:00:37;5.43;;;3.90;;
84614;SDS011;74845;51.204;22.580;2024-03-17T13:03:03;5.35;;;4.40;;
84614;SDS011;74845;51.204;22.580;2024-03-17T13:05:31;5.13;;;4.55;;
84614;SDS011;74845;51.204;22.580;2024-03-17T13:10:27;8.02;;;4.63;;
84614;SDS011;74845;51.204;22.580;2024-03-17T13:15:32;18.17;;;9.93;;
84614;SDS011;74845;51.204;22.580;2024-03-17T13:17:59;14.68;;;10.07;;
84614;SDS011;74845;51.204;22.580;2024-03-17T13:20:25;14.63;;;8.23;;
84614;SDS011;74845;51.204;22.580;2024-03-17T13:22:51;11.80;;;7.70;;
84614;SDS011;74845;51.204;22.580;2024-03-17T13:25:18;13.90;;;9.55;;
84614;SDS011;74845;51.204;22.580;2024-03-17T13:27:48;18.63;;;11.05;;
84614;SDS011;74845;51.204;22.580;2024-03-17T13:30:15;11.68;;;9.60;;
84614;SDS011;74845;51.204;22.580;2024-03-17T13:32:43;13.35;;;10.05;;
84614;SDS011;74845;51.204;22.580;2024-03-17T13:35:19;13.85;;;10.05;;
84614;SDS011;74845;51.204;22.580;2024-03-17T13:37:46;8.93;;;7.40;;
84614;SDS011;74845;51.204;22.580;2024-03-17T13:40:13;8.18;;;4.93;;
84614;SDS011;74845;51.204;22.580;2024-03-17T13:42:42;6.97;;;4.70;;
84614;SDS011;74845;51.204;22.580;2024-03-17T13:45:10;11.30;;;8.13;;
84614;SDS011;74845;51.204;22.580;2024-03-17T13:47:37;13.75;;;8.88;;
84614;SDS011;74845;51.204;22.580;2024-03-17T13:50:04;13.27;;;7.60;;
84614;SDS011;74845;51.204;22.580;2024-03-17T13:52:39;10.52;;;7.05;;
84614;SDS011;74845;51.204;22.580;2024-03-17T13:55:18;10.05;;;5.00;;
84614;SDS011;74845;51.204;22.580;2024-03-17T14:00:28;5.85;;;3.95;;
84614;SDS011;74845;51.204;22.580;2024-03-17T14:02:56;5.63;;;4.95;;
84614;SDS011;74845;51.204;22.580;2024-03-17T14:05:23;9.38;;;4.53;;
84614;SDS011;74845;51.204;22.580;2024-03-17T14:07:51;5.20;;;4.00;;
84614;SDS011;74845;51.204;22.580;2024-03-17T14:10:18;5.82;;;5.07;;
84614;SDS011;74845;51.204;22.580;2024-03-17T14:12:44;8.27;;;5.32;;
84614;SDS011;74845;51.204;22.580;2024-03-17T14:15:12;4.90;;;4.22;;
84614;SDS011;74845;51.204;22.580;2024-03-17T14:17:40;5.78;;;4.88;;
84614;SDS011;74845;51.204;22.580;2024-03-17T14:20:07;5.50;;;4.70;;
84614;SDS011;74845;51.204;22.580;2024-03-17T14:22:40;6.25;;;3.85;;
84614;SDS011;74845;51.204;22.580;2024-03-17T14:25:10;6.07;;;4.80;;
84614;SDS011;74845;51.204;22.580;2024-03-17T14:27:43;4.78;;;4.30;;
84614;SDS011;74845;51.204;22.580;2024-03-17T14:30:10;7.07;;;5.70;;
84614;SDS011;74845;51.204;22.580;2024-03-17T14:32:40;10.50;;;8.07;;
84614;SDS011;74845;51.204;22.580;2024-03-17T14:35:06;8.23;;;7.35;;
84614;SDS011;74845;51.204;22.580;2024-03-17T14:37:36;7.28;;;6.22;;
84614;SDS011;74845;51.204;22.580;2024-03-17T14:40:02;6.35;;;4.88;;
84614;SDS011;74845;51.204;22.580;2024-03-17T14:42:32;15.15;;;10.13;;
84614;SDS011;74845;51.204;22.580;2024-03-17T14:44:57;6.97;;;6.38;;
84614;SDS011;74845;51.204;22.580;2024-03-17T14:47:23;5.90;;;5.32;;
84614;SDS011;74845;51.204;22.580;2024-03-17T14:49:49;9.73;;;6.50;;
84614;SDS011;74845;51.204;22.580;2024-03-17T14:52:16;6.68;;;5.43;;
84614;SDS011;74845;51.204;22.580;2024-03-17T14:54:42;8.48;;;6.07;;
84614;SDS011;74845;51.204;22.580;2024-03-17T14:57:08;7.43;;;6.55;;
84614;SDS011;74845;51.204;22.580;2024-03-17T14:59:34;33.70;;;18.10;;
84614;SDS011;74845;51.204;22.580;2024-03-17T15:02:00;12.00;;;9.43;;
84614;SDS011;74845;51.204;22.580;2024-03-17T15:04:26;11.63;;;10.15;;
84614;SDS011;74845;51.204;22.580;2024-03-17T15:06:52;8.52;;;7.75;;
84614;SDS011;74845;51.204;22.580;2024-03-17T15:09:19;8.65;;;7.95;;
84614;SDS011;74845;51.204;22.580;2024-03-17T15:11:47;13.75;;;12.52;;
84614;SDS011;74845;51.204;22.580;2024-03-17T15:14:12;8.90;;;8.10;;
84614;SDS011;74845;51.204;22.580;2024-03-17T15:16:38;7.30;;;5.30;;
84614;SDS011;74845;51.204;22.580;2024-03-17T15:19:04;6.60;;;5.32;;
84614;SDS011;74845;51.204;22.580;2024-03-17T15:21:31;6.45;;;5.68;;
84614;SDS011;74845;51.204;22.580;2024-03-17T15:23:57;5.40;;;4.60;;
84614;SDS011;74845;51.204;22.580;2024-03-17T15:26:23;6.30;;;5.00;;
84614;SDS011;74845;51.204;22.580;2024-03-17T15:28:49;5.97;;;4.45;;
84614;SDS011;74845;51.204;22.580;2024-03-17T15:31:15;6.18;;;5.22;;